Pagina principale
METAR-TAF:

METAR-TAF

Aeroporti :

Aeroporto di Annaba-Rabah Bitat

Annaba, Algeria

latitudine: 36-50N, longitudine: 007-49E, altezza: 4 m

Osservazione

Il bollettino è stato emesso 19 minuti fa, alle 15:30 UTC
Vento 12 kt da nord-est
Temperature 35°C
Umidità 23%
Pressione 1010 hPa
Visibilità 10 km o più
nessuna nube inferiore a 1500 m e nessun cumulonembo

METAR: DABB 131530Z 04012KT CAVOK 35/11 Q1010

Ora: 16:49 (15:49 UTC)

Previsione

Il bollettino è stato emesso 4 ore e 49 minuti fa, alle 11:00 UTC
Previsione valida dal 13 alle 12 UTC al 14 alle 12 UTC
Vento 8 kt da est/nord-est
Visibilità 10 km o più
Poco nuvoloso ad un'altezza di 2000 ft
Probabilità 30% :
Temporaneamente
dal 13 alle 13 UTC al 13 alle 18 UTC
Vento 12 kt da nord

TAF: DABB 131100Z 1312/1412 06008KT 9999 FEW020 PROB30 TEMPO 1313/1318 35012KT

Osservazioni e previsioni meteorologiche di più di 4000 aeroporti (messaggi METAR e TAF).

Le stazioni disponibili sono rappresentate dai dischi gialli e rossi sulla carta.

Puntare il mouse per vedere il nome della stazione.

Clicca sopra per visualizzare le osservazioni e previsioni meteorologiche.

Per cambiare la mappa : fare clic sui pulsanti verdi con una croce nera per ingrandire, il pulsante verde con un trattino per diminuire, o sulla freccia verde per le mappe adiacenti.


METAR-TAF: